sensor_id;sensor_type;location;lat;lon;timestamp;pressure;altitude;pressure_sealevel;temperature;humidity
79690;BME280;69156;55.932;-3.238;2023-11-21T00:00:45;101581.62;;;9.34;94.16
79690;BME280;69156;55.932;-3.238;2023-11-21T00:03:11;101582.55;;;9.38;94.12
79690;BME280;69156;55.932;-3.238;2023-11-21T00:05:36;101584.10;;;9.30;94.12
79690;BME280;69156;55.932;-3.238;2023-11-21T00:08:02;101580.46;;;9.33;93.95
79690;BME280;69156;55.932;-3.238;2023-11-21T00:10:27;101581.93;;;9.32;94.41
79690;BME280;69156;55.932;-3.238;2023-11-21T00:12:52;101583.01;;;9.33;94.35
79690;BME280;69156;55.932;-3.238;2023-11-21T00:15:17;101589.75;;;9.26;94.47
79690;BME280;69156;55.932;-3.238;2023-11-21T00:17:42;101595.76;;;9.24;94.55
79690;BME280;69156;55.932;-3.238;2023-11-21T00:20:09;101599.47;;;9.31;94.50
79690;BME280;69156;55.932;-3.238;2023-11-21T00:22:35;101602.83;;;9.32;94.64
79690;BME280;69156;55.932;-3.238;2023-11-21T00:25:01;101603.02;;;9.37;94.80
79690;BME280;69156;55.932;-3.238;2023-11-21T00:27:26;101609.58;;;9.33;94.73
79690;BME280;69156;55.932;-3.238;2023-11-21T00:29:51;101610.49;;;9.25;94.76
79690;BME280;69156;55.932;-3.238;2023-11-21T00:32:17;101611.32;;;9.44;94.38
79690;BME280;69156;55.932;-3.238;2023-11-21T00:34:42;101608.04;;;9.42;94.36
79690;BME280;69156;55.932;-3.238;2023-11-21T00:37:08;101612.48;;;9.44;94.24
79690;BME280;69156;55.932;-3.238;2023-11-21T00:39:34;101612.69;;;9.62;93.75
79690;BME280;69156;55.932;-3.238;2023-11-21T00:41:59;101612.87;;;9.41;94.07
79690;BME280;69156;55.932;-3.238;2023-11-21T00:44:26;101612.71;;;9.29;93.64
79690;BME280;69156;55.932;-3.238;2023-11-21T00:46:52;101615.44;;;9.22;94.14
79690;BME280;69156;55.932;-3.238;2023-11-21T00:49:17;101606.94;;;9.42;94.33
79690;BME280;69156;55.932;-3.238;2023-11-21T00:51:43;101608.43;;;9.38;94.40
79690;BME280;69156;55.932;-3.238;2023-11-21T00:54:08;101609.80;;;9.30;94.51
79690;BME280;69156;55.932;-3.238;2023-11-21T00:56:33;101615.16;;;9.18;94.62
79690;BME280;69156;55.932;-3.238;2023-11-21T00:58:59;101615.18;;;9.30;94.48
79690;BME280;69156;55.932;-3.238;2023-11-21T01:01:24;101621.80;;;9.21;94.72
79690;BME280;69156;55.932;-3.238;2023-11-21T01:03:49;101623.61;;;9.13;94.74
79690;BME280;69156;55.932;-3.238;2023-11-21T01:06:15;101625.49;;;9.19;94.94
79690;BME280;69156;55.932;-3.238;2023-11-21T01:08:40;101629.88;;;9.17;95.21
79690;BME280;69156;55.932;-3.238;2023-11-21T01:11:05;101632.13;;;9.11;95.19
79690;BME280;69156;55.932;-3.238;2023-11-21T01:13:31;101634.81;;;9.31;94.43
79690;BME280;69156;55.932;-3.238;2023-11-21T01:15:56;101642.69;;;9.30;94.05
79690;BME280;69156;55.932;-3.238;2023-11-21T01:18:21;101645.45;;;9.28;93.80
79690;BME280;69156;55.932;-3.238;2023-11-21T01:20:46;101647.82;;;9.22;93.40
79690;BME280;69156;55.932;-3.238;2023-11-21T01:23:12;101649.37;;;9.34;93.29
79690;BME280;69156;55.932;-3.238;2023-11-21T01:25:37;101659.04;;;9.34;93.08
79690;BME280;69156;55.932;-3.238;2023-11-21T01:28:03;101667.09;;;9.52;92.68
79690;BME280;69156;55.932;-3.238;2023-11-21T01:30:28;101674.63;;;9.46;91.77
79690;BME280;69156;55.932;-3.238;2023-11-21T01:32:54;101680.85;;;9.40;92.01
79690;BME280;69156;55.932;-3.238;2023-11-21T01:35:19;101687.39;;;9.34;92.62
79690;BME280;69156;55.932;-3.238;2023-11-21T01:37:44;101693.01;;;9.26;93.34
79690;BME280;69156;55.932;-3.238;2023-11-21T01:40:10;101701.35;;;9.34;93.28
79690;BME280;69156;55.932;-3.238;2023-11-21T01:42:35;101702.81;;;9.33;93.62
79690;BME280;69156;55.932;-3.238;2023-11-21T01:45:00;101702.94;;;9.22;93.95
79690;BME280;69156;55.932;-3.238;2023-11-21T01:47:25;101703.01;;;9.18;94.28
79690;BME280;69156;55.932;-3.238;2023-11-21T01:49:51;101710.58;;;9.09;94.29
79690;BME280;69156;55.932;-3.238;2023-11-21T01:52:16;101713.42;;;9.04;94.38
79690;BME280;69156;55.932;-3.238;2023-11-21T01:54:42;101718.82;;;9.10;94.64
79690;BME280;69156;55.932;-3.238;2023-11-21T01:57:07;101718.51;;;9.08;95.14
79690;BME280;69156;55.932;-3.238;2023-11-21T01:59:35;101724.94;;;9.09;94.41
79690;BME280;69156;55.932;-3.238;2023-11-21T02:01:59;101724.85;;;9.04;94.02
79690;BME280;69156;55.932;-3.238;2023-11-21T02:04:24;101725.35;;;9.16;93.47
79690;BME280;69156;55.932;-3.238;2023-11-21T02:06:49;101723.53;;;9.18;92.94
79690;BME280;69156;55.932;-3.238;2023-11-21T02:09:14;101720.68;;;9.10;92.82
79690;BME280;69156;55.932;-3.238;2023-11-21T02:11:40;101720.16;;;9.05;92.50
79690;BME280;69156;55.932;-3.238;2023-11-21T02:14:05;101723.72;;;8.92;92.28
79690;BME280;69156;55.932;-3.238;2023-11-21T02:16:31;101729.24;;;8.87;91.71
79690;BME280;69156;55.932;-3.238;2023-11-21T02:18:57;101732.84;;;8.66;91.58
79690;BME280;69156;55.932;-3.238;2023-11-21T02:21:21;101739.54;;;8.80;91.56
79690;BME280;69156;55.932;-3.238;2023-11-21T02:23:47;101747.98;;;8.58;91.25
79690;BME280;69156;55.932;-3.238;2023-11-21T02:26:13;101758.56;;;8.59;90.83
79690;BME280;69156;55.932;-3.238;2023-11-21T02:28:39;101760.97;;;8.51;90.42
79690;BME280;69156;55.932;-3.238;2023-11-21T02:31:04;101760.18;;;8.46;91.20
79690;BME280;69156;55.932;-3.238;2023-11-21T02:33:30;101756.69;;;8.56;91.18
79690;BME280;69156;55.932;-3.238;2023-11-21T02:35:55;101763.38;;;8.61;91.14
79690;BME280;69156;55.932;-3.238;2023-11-21T02:38:20;101764.94;;;8.47;91.24
79690;BME280;69156;55.932;-3.238;2023-11-21T02:40:45;101769.77;;;8.43;91.16
79690;BME280;69156;55.932;-3.238;2023-11-21T02:43:12;101772.83;;;8.56;91.00
79690;BME280;69156;55.932;-3.238;2023-11-21T02:45:37;101772.50;;;8.49;91.33
79690;BME280;69156;55.932;-3.238;2023-11-21T02:48:03;101770.96;;;8.61;90.80
79690;BME280;69156;55.932;-3.238;2023-11-21T02:50:28;101772.41;;;8.50;90.92
79690;BME280;69156;55.932;-3.238;2023-11-21T02:52:54;101777.13;;;8.51;90.65
79690;BME280;69156;55.932;-3.238;2023-11-21T02:55:19;101781.71;;;8.41;90.69
79690;BME280;69156;55.932;-3.238;2023-11-21T02:57:45;101786.00;;;8.37;90.59
79690;BME280;69156;55.932;-3.238;2023-11-21T03:00:11;101793.01;;;8.30;90.44
79690;BME280;69156;55.932;-3.238;2023-11-21T03:02:36;101807.77;;;8.27;90.63
79690;BME280;69156;55.932;-3.238;2023-11-21T03:05:02;101816.60;;;8.41;90.37
79690;BME280;69156;55.932;-3.238;2023-11-21T03:07:27;101825.80;;;8.23;90.39
79690;BME280;69156;55.932;-3.238;2023-11-21T03:09:53;101830.94;;;8.44;90.53
79690;BME280;69156;55.932;-3.238;2023-11-21T03:12:18;101829.18;;;8.37;90.30
79690;BME280;69156;55.932;-3.238;2023-11-21T03:14:44;101831.71;;;8.36;90.30
79690;BME280;69156;55.932;-3.238;2023-11-21T03:17:10;101826.20;;;8.47;89.94
79690;BME280;69156;55.932;-3.238;2023-11-21T03:19:35;101826.66;;;8.33;89.74
79690;BME280;69156;55.932;-3.238;2023-11-21T03:22:01;101826.10;;;8.59;89.89
79690;BME280;69156;55.932;-3.238;2023-11-21T03:24:26;101828.25;;;8.63;89.35
79690;BME280;69156;55.932;-3.238;2023-11-21T03:26:51;101828.91;;;8.56;89.38
79690;BME280;69156;55.932;-3.238;2023-11-21T03:29:17;101832.30;;;8.55;89.30
79690;BME280;69156;55.932;-3.238;2023-11-21T03:31:42;101834.89;;;8.46;89.42
79690;BME280;69156;55.932;-3.238;2023-11-21T03:34:16;101843.74;;;8.38;89.52
79690;BME280;69156;55.932;-3.238;2023-11-21T03:36:33;101850.85;;;8.38;89.58
79690;BME280;69156;55.932;-3.238;2023-11-21T03:38:58;101855.09;;;8.52;89.44
79690;BME280;69156;55.932;-3.238;2023-11-21T03:41:23;101857.03;;;8.51;88.98
79690;BME280;69156;55.932;-3.238;2023-11-21T03:43:48;101857.66;;;8.49;88.66
79690;BME280;69156;55.932;-3.238;2023-11-21T03:46:14;101858.45;;;8.39;88.19
79690;BME280;69156;55.932;-3.238;2023-11-21T03:48:40;101857.71;;;8.44;87.83
79690;BME280;69156;55.932;-3.238;2023-11-21T03:51:05;101856.01;;;8.33;87.88
79690;BME280;69156;55.932;-3.238;2023-11-21T03:53:30;101856.07;;;8.20;87.61
79690;BME280;69156;55.932;-3.238;2023-11-21T03:55:55;101865.37;;;8.13;86.96
79690;BME280;69156;55.932;-3.238;2023-11-21T03:58:22;101874.88;;;8.24;87.12
79690;BME280;69156;55.932;-3.238;2023-11-21T04:00:47;101887.01;;;8.19;86.68
79690;BME280;69156;55.932;-3.238;2023-11-21T04:03:12;101893.17;;;8.17;86.61
79690;BME280;69156;55.932;-3.238;2023-11-21T04:05:38;101895.79;;;8.21;86.69
79690;BME280;69156;55.932;-3.238;2023-11-21T04:08:04;101897.80;;;8.24;86.12
79690;BME280;69156;55.932;-3.238;2023-11-21T04:10:29;101897.19;;;8.24;86.32
79690;BME280;69156;55.932;-3.238;2023-11-21T04:12:54;101897.61;;;8.21;86.25
79690;BME280;69156;55.932;-3.238;2023-11-21T04:15:21;101903.19;;;8.21;86.15
79690;BME280;69156;55.932;-3.238;2023-11-21T04:17:46;101907.06;;;8.13;86.16
79690;BME280;69156;55.932;-3.238;2023-11-21T04:20:12;101911.03;;;8.06;86.51
79690;BME280;69156;55.932;-3.238;2023-11-21T04:22:38;101914.21;;;8.06;86.91
79690;BME280;69156;55.932;-3.238;2023-11-21T04:25:04;101918.71;;;7.94;86.89
79690;BME280;69156;55.932;-3.238;2023-11-21T04:27:28;101929.77;;;8.05;87.19
79690;BME280;69156;55.932;-3.238;2023-11-21T04:29:53;101931.61;;;8.16;87.36
79690;BME280;69156;55.932;-3.238;2023-11-21T04:32:19;101936.54;;;8.18;86.87
79690;BME280;69156;55.932;-3.238;2023-11-21T04:34:45;101940.22;;;8.27;86.98
79690;BME280;69156;55.932;-3.238;2023-11-21T04:37:10;101943.54;;;8.25;87.29
79690;BME280;69156;55.932;-3.238;2023-11-21T04:39:36;101942.85;;;8.25;87.35
79690;BME280;69156;55.932;-3.238;2023-11-21T04:42:01;101943.66;;;8.35;87.11
79690;BME280;69156;55.932;-3.238;2023-11-21T04:44:27;101944.93;;;8.23;87.28
79690;BME280;69156;55.932;-3.238;2023-11-21T04:46:53;101945.19;;;8.13;87.78
79690;BME280;69156;55.932;-3.238;2023-11-21T04:49:18;101947.77;;;8.00;88.32
79690;BME280;69156;55.932;-3.238;2023-11-21T04:51:43;101951.62;;;8.07;88.83
79690;BME280;69156;55.932;-3.238;2023-11-21T04:54:09;101954.61;;;8.09;89.11
79690;BME280;69156;55.932;-3.238;2023-11-21T04:56:34;101959.94;;;8.09;89.31
79690;BME280;69156;55.932;-3.238;2023-11-21T04:58:59;101966.63;;;8.16;89.65
79690;BME280;69156;55.932;-3.238;2023-11-21T05:01:24;101967.31;;;8.18;89.34
79690;BME280;69156;55.932;-3.238;2023-11-21T05:03:50;101974.83;;;8.38;89.20
79690;BME280;69156;55.932;-3.238;2023-11-21T05:06:15;101975.67;;;8.16;89.36
79690;BME280;69156;55.932;-3.238;2023-11-21T05:08:41;101974.89;;;8.21;89.81
79690;BME280;69156;55.932;-3.238;2023-11-21T05:11:06;101974.10;;;8.22;89.73
79690;BME280;69156;55.932;-3.238;2023-11-21T05:13:33;101976.39;;;8.07;90.12
79690;BME280;69156;55.932;-3.238;2023-11-21T05:15:57;101979.19;;;8.05;90.23
79690;BME280;69156;55.932;-3.238;2023-11-21T05:18:22;101983.31;;;8.12;90.25
79690;BME280;69156;55.932;-3.238;2023-11-21T05:20:47;101990.92;;;8.01;90.37
79690;BME280;69156;55.932;-3.238;2023-11-21T05:23:13;101999.72;;;8.06;90.10
79690;BME280;69156;55.932;-3.238;2023-11-21T05:25:38;102004.67;;;8.06;90.16
79690;BME280;69156;55.932;-3.238;2023-11-21T05:28:03;102004.97;;;8.10;90.40
79690;BME280;69156;55.932;-3.238;2023-11-21T05:30:29;101998.82;;;8.03;90.00
79690;BME280;69156;55.932;-3.238;2023-11-21T05:32:54;101995.29;;;8.04;89.99
79690;BME280;69156;55.932;-3.238;2023-11-21T05:35:19;101996.66;;;7.85;90.36
79690;BME280;69156;55.932;-3.238;2023-11-21T05:37:44;101998.87;;;7.84;90.51
79690;BME280;69156;55.932;-3.238;2023-11-21T05:40:10;102002.78;;;7.67;90.48
79690;BME280;69156;55.932;-3.238;2023-11-21T05:42:36;102006.57;;;7.66;90.54
79690;BME280;69156;55.932;-3.238;2023-11-21T05:45:02;102018.04;;;7.59;90.70
79690;BME280;69156;55.932;-3.238;2023-11-21T05:47:27;102019.41;;;7.74;90.31
79690;BME280;69156;55.932;-3.238;2023-11-21T05:49:52;102029.88;;;7.59;90.39
79690;BME280;69156;55.932;-3.238;2023-11-21T05:52:17;102026.37;;;7.68;90.11
79690;BME280;69156;55.932;-3.238;2023-11-21T05:54:43;102021.66;;;7.67;89.95
79690;BME280;69156;55.932;-3.238;2023-11-21T05:57:08;102023.65;;;7.65;90.32
79690;BME280;69156;55.932;-3.238;2023-11-21T05:59:33;102024.91;;;7.57;90.76
79690;BME280;69156;55.932;-3.238;2023-11-21T06:01:59;102029.82;;;7.53;92.27
79690;BME280;69156;55.932;-3.238;2023-11-21T06:04:24;102031.17;;;7.48;92.93
79690;BME280;69156;55.932;-3.238;2023-11-21T06:06:50;102040.82;;;7.58;93.10
79690;BME280;69156;55.932;-3.238;2023-11-21T06:09:14;102044.68;;;7.62;91.94
79690;BME280;69156;55.932;-3.238;2023-11-21T06:11:39;102051.47;;;7.84;92.30
79690;BME280;69156;55.932;-3.238;2023-11-21T06:14:05;102056.61;;;7.60;92.44
79690;BME280;69156;55.932;-3.238;2023-11-21T06:16:30;102056.46;;;7.57;93.07
79690;BME280;69156;55.932;-3.238;2023-11-21T06:18:56;102052.90;;;7.56;92.72
79690;BME280;69156;55.932;-3.238;2023-11-21T06:21:21;102053.44;;;7.56;92.77
79690;BME280;69156;55.932;-3.238;2023-11-21T06:23:47;102062.89;;;7.63;93.15
79690;BME280;69156;55.932;-3.238;2023-11-21T06:26:12;102061.15;;;7.61;92.94
79690;BME280;69156;55.932;-3.238;2023-11-21T06:28:37;102060.52;;;7.65;93.25
79690;BME280;69156;55.932;-3.238;2023-11-21T06:31:03;102061.46;;;7.64;93.33
79690;BME280;69156;55.932;-3.238;2023-11-21T06:33:28;102064.24;;;7.59;93.21
79690;BME280;69156;55.932;-3.238;2023-11-21T06:35:53;102071.64;;;7.60;93.01
79690;BME280;69156;55.932;-3.238;2023-11-21T06:38:19;102080.06;;;7.57;93.10
79690;BME280;69156;55.932;-3.238;2023-11-21T06:40:45;102085.34;;;7.53;93.09
79690;BME280;69156;55.932;-3.238;2023-11-21T06:43:10;102078.79;;;7.67;92.76
79690;BME280;69156;55.932;-3.238;2023-11-21T06:45:36;102078.25;;;7.73;92.33
79690;BME280;69156;55.932;-3.238;2023-11-21T06:48:02;102080.93;;;7.84;91.77
79690;BME280;69156;55.932;-3.238;2023-11-21T06:50:27;102082.22;;;7.70;91.57
79690;BME280;69156;55.932;-3.238;2023-11-21T06:52:52;102090.04;;;7.66;91.14
79690;BME280;69156;55.932;-3.238;2023-11-21T06:55:18;102099.88;;;7.53;91.20
79690;BME280;69156;55.932;-3.238;2023-11-21T06:57:45;102104.76;;;7.44;91.67
79690;BME280;69156;55.932;-3.238;2023-11-21T07:00:12;102108.28;;;7.19;92.79
79690;BME280;69156;55.932;-3.238;2023-11-21T07:02:36;102110.42;;;7.29;93.66
79690;BME280;69156;55.932;-3.238;2023-11-21T07:05:02;102110.32;;;7.17;93.46
79690;BME280;69156;55.932;-3.238;2023-11-21T07:07:27;102114.06;;;7.16;93.66
79690;BME280;69156;55.932;-3.238;2023-11-21T07:09:52;102122.56;;;7.14;93.18
79690;BME280;69156;55.932;-3.238;2023-11-21T07:12:18;102130.53;;;7.19;93.83
79690;BME280;69156;55.932;-3.238;2023-11-21T07:14:43;102137.61;;;7.15;94.11
79690;BME280;69156;55.932;-3.238;2023-11-21T07:17:09;102140.46;;;7.19;94.13
79690;BME280;69156;55.932;-3.238;2023-11-21T07:19:35;102138.89;;;7.14;94.48
79690;BME280;69156;55.932;-3.238;2023-11-21T07:22:00;102132.21;;;7.02;94.33
79690;BME280;69156;55.932;-3.238;2023-11-21T07:24:26;102131.20;;;7.17;94.16
79690;BME280;69156;55.932;-3.238;2023-11-21T07:26:51;102128.66;;;7.11;93.80
79690;BME280;69156;55.932;-3.238;2023-11-21T07:29:16;102130.47;;;7.20;93.09
79690;BME280;69156;55.932;-3.238;2023-11-21T07:31:42;102130.50;;;7.22;93.40
79690;BME280;69156;55.932;-3.238;2023-11-21T07:34:07;102133.38;;;7.27;93.46
79690;BME280;69156;55.932;-3.238;2023-11-21T07:36:33;102135.01;;;7.16;94.03
79690;BME280;69156;55.932;-3.238;2023-11-21T07:38:58;102137.49;;;7.12;94.68
79690;BME280;69156;55.932;-3.238;2023-11-21T07:41:24;102137.39;;;7.08;95.28
79690;BME280;69156;55.932;-3.238;2023-11-21T07:43:49;102144.77;;;7.01;95.23
79690;BME280;69156;55.932;-3.238;2023-11-21T07:46:15;102146.45;;;6.98;95.10
79690;BME280;69156;55.932;-3.238;2023-11-21T07:48:41;102151.54;;;6.99;94.68
79690;BME280;69156;55.932;-3.238;2023-11-21T07:51:07;102156.39;;;6.89;94.72
79690;BME280;69156;55.932;-3.238;2023-11-21T07:53:32;102166.26;;;6.87;95.19
79690;BME280;69156;55.932;-3.238;2023-11-21T07:55:57;102163.59;;;6.81;95.68
79690;BME280;69156;55.932;-3.238;2023-11-21T07:58:22;102156.98;;;6.81;96.03
79690;BME280;69156;55.932;-3.238;2023-11-21T08:00:49;102156.52;;;6.91;95.68
79690;BME280;69156;55.932;-3.238;2023-11-21T08:03:14;102149.50;;;6.93;95.46
79690;BME280;69156;55.932;-3.238;2023-11-21T08:05:39;102157.75;;;6.94;94.66
79690;BME280;69156;55.932;-3.238;2023-11-21T08:08:05;102154.83;;;7.06;94.58
79690;BME280;69156;55.932;-3.238;2023-11-21T08:10:30;102157.30;;;7.00;94.60
79690;BME280;69156;55.932;-3.238;2023-11-21T08:12:56;102160.44;;;6.76;95.56
79690;BME280;69156;55.932;-3.238;2023-11-21T08:15:22;102160.00;;;6.77;96.21
79690;BME280;69156;55.932;-3.238;2023-11-21T08:17:48;102164.06;;;6.72;96.76
79690;BME280;69156;55.932;-3.238;2023-11-21T08:20:13;102167.59;;;6.62;97.02
79690;BME280;69156;55.932;-3.238;2023-11-21T08:22:38;102166.43;;;6.64;97.68
79690;BME280;69156;55.932;-3.238;2023-11-21T08:25:05;102174.22;;;6.57;98.09
79690;BME280;69156;55.932;-3.238;2023-11-21T08:27:30;102181.35;;;6.61;98.19
79690;BME280;69156;55.932;-3.238;2023-11-21T08:29:55;102183.42;;;6.53;98.62
79690;BME280;69156;55.932;-3.238;2023-11-21T08:32:21;102184.24;;;6.58;98.67
79690;BME280;69156;55.932;-3.238;2023-11-21T08:34:47;102186.05;;;6.61;98.69
79690;BME280;69156;55.932;-3.238;2023-11-21T08:37:15;102189.89;;;6.51;98.57
79690;BME280;69156;55.932;-3.238;2023-11-21T08:39:38;102181.68;;;6.55;98.66
79690;BME280;69156;55.932;-3.238;2023-11-21T08:42:04;102183.37;;;6.62;98.71
79690;BME280;69156;55.932;-3.238;2023-11-21T08:44:30;102193.55;;;6.58;98.47
79690;BME280;69156;55.932;-3.238;2023-11-21T08:46:55;102190.27;;;6.55;98.46
79690;BME280;69156;55.932;-3.238;2023-11-21T08:49:20;102185.06;;;6.61;98.67
79690;BME280;69156;55.932;-3.238;2023-11-21T08:51:46;102186.87;;;6.62;98.64
79690;BME280;69156;55.932;-3.238;2023-11-21T08:54:11;102188.18;;;6.63;98.83
79690;BME280;69156;55.932;-3.238;2023-11-21T08:56:36;102195.64;;;6.52;98.93
79690;BME280;69156;55.932;-3.238;2023-11-21T08:59:02;102199.25;;;6.60;99.00
79690;BME280;69156;55.932;-3.238;2023-11-21T09:01:27;102202.10;;;6.57;99.43
79690;BME280;69156;55.932;-3.238;2023-11-21T09:03:53;102205.04;;;6.75;99.53
79690;BME280;69156;55.932;-3.238;2023-11-21T09:06:18;102210.58;;;6.70;99.23
79690;BME280;69156;55.932;-3.238;2023-11-21T09:08:44;102212.94;;;6.78;99.53
79690;BME280;69156;55.932;-3.238;2023-11-21T09:11:09;102214.20;;;6.67;99.39
79690;BME280;69156;55.932;-3.238;2023-11-21T09:13:35;102212.23;;;6.71;99.35
79690;BME280;69156;55.932;-3.238;2023-11-21T09:16:00;102217.96;;;6.86;99.08
79690;BME280;69156;55.932;-3.238;2023-11-21T09:18:26;102220.75;;;6.90;99.02
79690;BME280;69156;55.932;-3.238;2023-11-21T09:20:52;102215.66;;;6.89;98.96
79690;BME280;69156;55.932;-3.238;2023-11-21T09:23:17;102218.49;;;7.01;98.79
79690;BME280;69156;55.932;-3.238;2023-11-21T09:25:43;102221.99;;;7.02;98.83
79690;BME280;69156;55.932;-3.238;2023-11-21T09:28:08;102220.57;;;7.03;98.11
79690;BME280;69156;55.932;-3.238;2023-11-21T09:30:34;102212.95;;;7.03;98.03
79690;BME280;69156;55.932;-3.238;2023-11-21T09:32:59;102214.04;;;7.05;97.71
79690;BME280;69156;55.932;-3.238;2023-11-21T09:35:25;102216.50;;;7.09;97.56
79690;BME280;69156;55.932;-3.238;2023-11-21T09:37:50;102220.88;;;7.10;97.12
79690;BME280;69156;55.932;-3.238;2023-11-21T09:40:20;102225.92;;;7.14;97.05
79690;BME280;69156;55.932;-3.238;2023-11-21T09:42:47;102232.20;;;7.22;96.73
79690;BME280;69156;55.932;-3.238;2023-11-21T09:45:14;102235.53;;;7.29;96.66
79690;BME280;69156;55.932;-3.238;2023-11-21T09:47:35;102233.38;;;7.16;96.39
79690;BME280;69156;55.932;-3.238;2023-11-21T09:50:01;102230.07;;;7.23;96.07
79690;BME280;69156;55.932;-3.238;2023-11-21T09:52:26;102231.08;;;7.25;96.03
79690;BME280;69156;55.932;-3.238;2023-11-21T09:54:51;102229.70;;;7.37;96.02
79690;BME280;69156;55.932;-3.238;2023-11-21T09:57:17;102231.47;;;7.41;95.65
79690;BME280;69156;55.932;-3.238;2023-11-21T09:59:43;102235.83;;;7.40;95.29
79690;BME280;69156;55.932;-3.238;2023-11-21T10:02:08;102238.70;;;7.35;94.91
79690;BME280;69156;55.932;-3.238;2023-11-21T10:04:33;102238.86;;;7.46;94.13
79690;BME280;69156;55.932;-3.238;2023-11-21T10:06:59;102243.71;;;7.45;94.15
79690;BME280;69156;55.932;-3.238;2023-11-21T10:09:24;102245.33;;;7.53;93.67
79690;BME280;69156;55.932;-3.238;2023-11-21T10:11:50;102244.60;;;7.58;93.01
79690;BME280;69156;55.932;-3.238;2023-11-21T10:14:19;102245.89;;;7.51;92.39
79690;BME280;69156;55.932;-3.238;2023-11-21T10:16:44;102239.63;;;7.62;92.31
79690;BME280;69156;55.932;-3.238;2023-11-21T10:19:09;102240.29;;;7.54;92.14
79690;BME280;69156;55.932;-3.238;2023-11-21T10:21:34;102240.27;;;7.67;92.28
79690;BME280;69156;55.932;-3.238;2023-11-21T10:23:59;102239.63;;;7.68;91.73
79690;BME280;69156;55.932;-3.238;2023-11-21T10:26:26;102243.71;;;7.63;91.96
79690;BME280;69156;55.932;-3.238;2023-11-21T10:28:58;102249.08;;;7.63;91.62
79690;BME280;69156;55.932;-3.238;2023-11-21T10:31:16;102247.91;;;7.69;91.76
79690;BME280;69156;55.932;-3.238;2023-11-21T10:33:41;102245.08;;;7.75;91.38
79690;BME280;69156;55.932;-3.238;2023-11-21T10:36:07;102240.84;;;7.91;90.09
79690;BME280;69156;55.932;-3.238;2023-11-21T10:38:35;102242.96;;;7.93;90.07
79690;BME280;69156;55.932;-3.238;2023-11-21T10:40:59;102248.28;;;7.84;89.44
79690;BME280;69156;55.932;-3.238;2023-11-21T10:43:25;102241.43;;;7.83;89.56
79690;BME280;69156;55.932;-3.238;2023-11-21T10:45:49;102235.57;;;7.79;89.82
79690;BME280;69156;55.932;-3.238;2023-11-21T10:48:15;102238.59;;;7.79;89.30
79690;BME280;69156;55.932;-3.238;2023-11-21T10:50:40;102233.90;;;7.70;88.75
79690;BME280;69156;55.932;-3.238;2023-11-21T10:53:06;102228.06;;;7.78;88.44
79690;BME280;69156;55.932;-3.238;2023-11-21T10:55:31;102231.68;;;7.78;88.28
79690;BME280;69156;55.932;-3.238;2023-11-21T10:57:58;102233.59;;;7.80;88.22
79690;BME280;69156;55.932;-3.238;2023-11-21T11:00:22;102238.60;;;7.76;88.15
79690;BME280;69156;55.932;-3.238;2023-11-21T11:02:50;102235.87;;;7.85;87.88
79690;BME280;69156;55.932;-3.238;2023-11-21T11:05:13;102235.72;;;7.83;87.81
79690;BME280;69156;55.932;-3.238;2023-11-21T11:07:41;102229.37;;;7.78;87.28
79690;BME280;69156;55.932;-3.238;2023-11-21T11:10:05;102229.20;;;7.79;86.93
79690;BME280;69156;55.932;-3.238;2023-11-21T11:12:29;102228.95;;;7.86;86.75
79690;BME280;69156;55.932;-3.238;2023-11-21T11:14:56;102226.15;;;7.87;86.20
79690;BME280;69156;55.932;-3.238;2023-11-21T11:17:21;102229.86;;;7.79;85.62
79690;BME280;69156;55.932;-3.238;2023-11-21T11:19:46;102230.97;;;7.76;85.32
79690;BME280;69156;55.932;-3.238;2023-11-21T11:22:19;102229.06;;;7.74;84.61
79690;BME280;69156;55.932;-3.238;2023-11-21T11:24:49;102227.86;;;7.84;84.58
79690;BME280;69156;55.932;-3.238;2023-11-21T11:27:09;102229.36;;;7.82;84.66
79690;BME280;69156;55.932;-3.238;2023-11-21T11:29:31;102217.89;;;7.92;84.33
79690;BME280;69156;55.932;-3.238;2023-11-21T11:32:02;102213.37;;;7.96;84.38
79690;BME280;69156;55.932;-3.238;2023-11-21T11:34:22;102211.15;;;8.09;83.36
79690;BME280;69156;55.932;-3.238;2023-11-21T11:36:48;102206.20;;;8.04;83.96
79690;BME280;69156;55.932;-3.238;2023-11-21T11:39:27;102209.29;;;8.19;84.59
79690;BME280;69156;55.932;-3.238;2023-11-21T11:41:35;102207.29;;;8.12;83.89
79690;BME280;69156;55.932;-3.238;2023-11-21T11:44:01;102201.06;;;8.16;83.11
79690;BME280;69156;55.932;-3.238;2023-11-21T11:46:41;102196.06;;;8.09;82.96
79690;BME280;69156;55.932;-3.238;2023-11-21T11:49:03;102198.41;;;8.26;82.50
79690;BME280;69156;55.932;-3.238;2023-11-21T11:51:18;102201.78;;;8.33;81.67
79690;BME280;69156;55.932;-3.238;2023-11-21T11:53:46;102204.90;;;8.26;81.64
79690;BME280;69156;55.932;-3.238;2023-11-21T11:56:22;102208.28;;;8.45;82.29
79690;BME280;69156;55.932;-3.238;2023-11-21T11:58:37;102200.38;;;8.38;81.34
79690;BME280;69156;55.932;-3.238;2023-11-21T12:00:58;102201.86;;;8.44;80.87
79690;BME280;69156;55.932;-3.238;2023-11-21T12:03:23;102210.63;;;8.55;80.62
79690;BME280;69156;55.932;-3.238;2023-11-21T12:05:49;102211.48;;;8.52;80.70
79690;BME280;69156;55.932;-3.238;2023-11-21T12:08:16;102213.23;;;8.67;79.70
79690;BME280;69156;55.932;-3.238;2023-11-21T12:10:42;102216.68;;;8.69;79.45
79690;BME280;69156;55.932;-3.238;2023-11-21T12:13:09;102213.23;;;8.66;79.76
79690;BME280;69156;55.932;-3.238;2023-11-21T12:15:34;102217.63;;;8.60;79.71
79690;BME280;69156;55.932;-3.238;2023-11-21T12:17:59;102223.87;;;8.62;79.74
79690;BME280;69156;55.932;-3.238;2023-11-21T12:20:25;102231.85;;;8.55;79.35
79690;BME280;69156;55.932;-3.238;2023-11-21T12:22:51;102225.60;;;8.67;79.65
79690;BME280;69156;55.932;-3.238;2023-11-21T12:25:15;102219.61;;;8.75;79.52
79690;BME280;69156;55.932;-3.238;2023-11-21T12:27:40;102215.86;;;8.53;79.31
79690;BME280;69156;55.932;-3.238;2023-11-21T12:30:07;102212.09;;;8.57;79.49
79690;BME280;69156;55.932;-3.238;2023-11-21T12:32:32;102209.43;;;8.60;79.16
79690;BME280;69156;55.932;-3.238;2023-11-21T12:34:57;102215.17;;;8.64;79.40
79690;BME280;69156;55.932;-3.238;2023-11-21T12:37:23;102213.35;;;8.72;78.78
79690;BME280;69156;55.932;-3.238;2023-11-21T12:39:49;102209.01;;;8.70;76.82